Αρχική σελίδα
METAR-TAF:

METAR-TAF

Αεροδρόμια :

Vilhena, Ροντόνια, Βραζιλία

γεωγραφικό πλάτος: 12-42S, γεωγραφικό μήκος: 060-06W, υψόμετρο: 612 μ

Παρών καιρός

Η αναφορά έγινε 1 ώρα και 6 λεπτά πριν, στις 22:00 UTC
Άνεμος 5 kt από Β/BΔ
Θερμοκρασία 26°C
Υγρασία 58%
Πίεση 1013 hPa
Ορατότητα 10 χλμ και άνω
Δεν υπάρχουν νέφη με βάση κάτω από τα 1500 μ. και δεν υπάρχουν νέφη σωρειτομελανίτες.

METAR: SBVH 212200Z 34005KT CAVOK 26/17 Q1013

Χρόνος: 19:06 (23:06 UTC)

Πρόγνωση Καιρού

Η αναφορά έγινε 7 ώρες και 45 λεπτά πριν, στις 15:21 UTC
Η πρόγνωση ισχύει από τις 21 στις 18 UTC έως τις 22 στις 06 UTC
Άνεμος 8 kt από Β
Ορατότητα 10 χλμ και άνω
Δεν υπάρχουν νέφη με βάση κάτω από τα 1500 μ. και δεν υπάρχουν νέφη σωρειτομελανίτες.

TAF: SBVH 211521Z 2118/2206 36008KT CAVOK TX31/2118Z TN22/2206Z RMK PHI

Μετεωρολογικές αναφορές και προγνώσεις για περισσότερα από 4000 αεροδρόμια (δελτία METAR και TAF).

Οι διαθέσιμοι σταθμοί απεικονίζονται στο χάρτη με κίτρινες και κόκκινες κουκκίδες.

Μετακινήστε το ποντίκι πάνω από τις κουκκίδες για να δείτε το όνομα του σταθμού.

Στη συνέχεια, κάντε κλικ για να δείτε τις μετεωρολογικές αναφορές και τις προγνώσεις καιρού.

Για να αλλάξετε το χάρτη: κάντε κλικ στα πράσινα κουμπιά με τον μαύρο σταυρό για να ζουμάρετε, στο πράσινο κουμπί με την παύλα για να αφαιρέσετε το ζουμ ή στα πράσινα βέλη για να αντιπαραβάλλετε χάρτες.


METAR-TAF: